sensor_id;sensor_type;location;lat;lon;timestamp;temperature;humidity
43627;DHT22;29217;52.586;13.442;2023-04-01T00:01:19;9.80;99.90
43627;DHT22;29217;52.586;13.442;2023-04-01T00:03:45;9.80;99.90
43627;DHT22;29217;52.586;13.442;2023-04-01T00:06:14;9.80;99.90
43627;DHT22;29217;52.586;13.442;2023-04-01T00:08:40;9.80;99.90
43627;DHT22;29217;52.586;13.442;2023-04-01T00:11:05;9.80;99.90
43627;DHT22;29217;52.586;13.442;2023-04-01T00:13:31;9.70;99.90
43627;DHT22;29217;52.586;13.442;2023-04-01T00:15:57;9.80;99.90
43627;DHT22;29217;52.586;13.442;2023-04-01T00:18:24;9.80;99.90
43627;DHT22;29217;52.586;13.442;2023-04-01T00:20:51;9.80;99.90
43627;DHT22;29217;52.586;13.442;2023-04-01T00:23:17;9.80;99.90
43627;DHT22;29217;52.586;13.442;2023-04-01T00:25:44;9.80;99.90
43627;DHT22;29217;52.586;13.442;2023-04-01T00:28:12;9.70;99.90
43627;DHT22;29217;52.586;13.442;2023-04-01T00:30:38;9.70;99.90
43627;DHT22;29217;52.586;13.442;2023-04-01T00:33:04;9.80;99.90
43627;DHT22;29217;52.586;13.442;2023-04-01T00:35:30;9.80;99.90
43627;DHT22;29217;52.586;13.442;2023-04-01T00:37:58;9.90;99.90
43627;DHT22;29217;52.586;13.442;2023-04-01T00:42:52;10.00;99.90
43627;DHT22;29217;52.586;13.442;2023-04-01T00:45:44;10.00;99.90
43627;DHT22;29217;52.586;13.442;2023-04-01T00:48:36;9.90;99.90
43627;DHT22;29217;52.586;13.442;2023-04-01T00:51:11;9.90;99.90
43627;DHT22;29217;52.586;13.442;2023-04-01T00:53:42;9.90;99.90
43627;DHT22;29217;52.586;13.442;2023-04-01T00:56:12;9.90;99.90
43627;DHT22;29217;52.586;13.442;2023-04-01T00:58:43;9.80;99.90
43627;DHT22;29217;52.586;13.442;2023-04-01T01:01:09;9.90;99.90
43627;DHT22;29217;52.586;13.442;2023-04-01T01:03:36;9.80;99.90
43627;DHT22;29217;52.586;13.442;2023-04-01T01:16:38;9.80;99.90
43627;DHT22;29217;52.586;13.442;2023-04-01T01:24:50;9.70;99.90
43627;DHT22;29217;52.586;13.442;2023-04-01T01:27:20;9.70;99.90
43627;DHT22;29217;52.586;13.442;2023-04-01T01:30:25;9.70;99.90
43627;DHT22;29217;52.586;13.442;2023-04-01T01:33:25;9.70;99.90
43627;DHT22;29217;52.586;13.442;2023-04-01T01:35:59;9.80;99.90
43627;DHT22;29217;52.586;13.442;2023-04-01T01:38:29;9.80;99.90
43627;DHT22;29217;52.586;13.442;2023-04-01T01:40:59;9.80;99.90
43627;DHT22;29217;52.586;13.442;2023-04-01T01:43:32;9.70;99.90
43627;DHT22;29217;52.586;13.442;2023-04-01T01:46:01;9.70;99.90
43627;DHT22;29217;52.586;13.442;2023-04-01T01:48:29;9.70;99.90
43627;DHT22;29217;52.586;13.442;2023-04-01T01:50:56;9.70;99.90
43627;DHT22;29217;52.586;13.442;2023-04-01T01:53:22;9.70;99.90
43627;DHT22;29217;52.586;13.442;2023-04-01T01:55:48;9.80;99.90
43627;DHT22;29217;52.586;13.442;2023-04-01T01:58:23;9.80;99.90
43627;DHT22;29217;52.586;13.442;2023-04-01T02:01:25;9.80;99.90
43627;DHT22;29217;52.586;13.442;2023-04-01T02:03:44;9.80;99.90
43627;DHT22;29217;52.586;13.442;2023-04-01T02:06:16;9.90;99.90
43627;DHT22;29217;52.586;13.442;2023-04-01T02:11:20;9.90;99.90
43627;DHT22;29217;52.586;13.442;2023-04-01T02:16:39;9.80;99.90
43627;DHT22;29217;52.586;13.442;2023-04-01T02:19:07;9.80;99.90
43627;DHT22;29217;52.586;13.442;2023-04-01T02:21:35;9.70;99.90
43627;DHT22;29217;52.586;13.442;2023-04-01T02:24:04;9.70;99.90
43627;DHT22;29217;52.586;13.442;2023-04-01T02:26:31;9.80;99.90
43627;DHT22;29217;52.586;13.442;2023-04-01T02:28:59;9.80;99.90
43627;DHT22;29217;52.586;13.442;2023-04-01T02:31:25;9.70;99.90
43627;DHT22;29217;52.586;13.442;2023-04-01T02:33:51;9.70;99.90
43627;DHT22;29217;52.586;13.442;2023-04-01T02:36:17;9.70;99.90
43627;DHT22;29217;52.586;13.442;2023-04-01T02:38:44;9.70;99.90
43627;DHT22;29217;52.586;13.442;2023-04-01T02:41:11;9.60;99.90
43627;DHT22;29217;52.586;13.442;2023-04-01T02:43:37;9.60;99.90
43627;DHT22;29217;52.586;13.442;2023-04-01T02:46:02;9.60;99.90
43627;DHT22;29217;52.586;13.442;2023-04-01T02:48:31;9.60;99.90
43627;DHT22;29217;52.586;13.442;2023-04-01T02:50:57;9.70;99.90
43627;DHT22;29217;52.586;13.442;2023-04-01T02:53:23;9.80;99.90
43627;DHT22;29217;52.586;13.442;2023-04-01T02:55:49;9.80;99.90
43627;DHT22;29217;52.586;13.442;2023-04-01T02:58:18;9.80;99.90
43627;DHT22;29217;52.586;13.442;2023-04-01T03:00:43;9.80;99.90
43627;DHT22;29217;52.586;13.442;2023-04-01T03:03:09;9.80;99.90
43627;DHT22;29217;52.586;13.442;2023-04-01T03:05:35;9.80;99.90
43627;DHT22;29217;52.586;13.442;2023-04-01T03:08:01;9.80;99.90
43627;DHT22;29217;52.586;13.442;2023-04-01T03:10:27;9.90;99.90
43627;DHT22;29217;52.586;13.442;2023-04-01T03:12:53;9.90;99.90
43627;DHT22;29217;52.586;13.442;2023-04-01T03:15:19;9.90;99.90
43627;DHT22;29217;52.586;13.442;2023-04-01T03:17:44;9.90;99.90
43627;DHT22;29217;52.586;13.442;2023-04-01T03:20:12;9.90;99.90
43627;DHT22;29217;52.586;13.442;2023-04-01T03:22:38;9.90;99.90
43627;DHT22;29217;52.586;13.442;2023-04-01T03:25:05;9.90;99.90
43627;DHT22;29217;52.586;13.442;2023-04-01T03:27:33;9.90;99.90
43627;DHT22;29217;52.586;13.442;2023-04-01T03:29:59;9.90;99.90
43627;DHT22;29217;52.586;13.442;2023-04-01T03:32:25;9.80;99.90
43627;DHT22;29217;52.586;13.442;2023-04-01T03:34:50;9.80;99.90
43627;DHT22;29217;52.586;13.442;2023-04-01T03:37:16;9.80;99.90
43627;DHT22;29217;52.586;13.442;2023-04-01T03:39:41;9.80;99.90
43627;DHT22;29217;52.586;13.442;2023-04-01T03:42:07;9.80;99.90
43627;DHT22;29217;52.586;13.442;2023-04-01T03:44:33;9.70;99.90
43627;DHT22;29217;52.586;13.442;2023-04-01T03:47:00;9.70;99.90
43627;DHT22;29217;52.586;13.442;2023-04-01T03:49:25;9.60;99.90
43627;DHT22;29217;52.586;13.442;2023-04-01T03:51:51;9.70;99.90
43627;DHT22;29217;52.586;13.442;2023-04-01T03:54:17;9.80;99.90
43627;DHT22;29217;52.586;13.442;2023-04-01T03:56:45;9.80;99.90
43627;DHT22;29217;52.586;13.442;2023-04-01T03:59:11;9.80;99.90
43627;DHT22;29217;52.586;13.442;2023-04-01T04:01:37;9.80;99.90
43627;DHT22;29217;52.586;13.442;2023-04-01T04:04:02;9.80;99.90
43627;DHT22;29217;52.586;13.442;2023-04-01T04:06:28;9.80;99.90
43627;DHT22;29217;52.586;13.442;2023-04-01T04:08:54;9.80;99.90
43627;DHT22;29217;52.586;13.442;2023-04-01T04:11:20;9.90;99.90
43627;DHT22;29217;52.586;13.442;2023-04-01T04:13:46;9.80;99.90
43627;DHT22;29217;52.586;13.442;2023-04-01T04:16:14;9.90;99.90
43627;DHT22;29217;52.586;13.442;2023-04-01T04:18:40;9.90;99.90
43627;DHT22;29217;52.586;13.442;2023-04-01T04:21:05;9.80;99.90
43627;DHT22;29217;52.586;13.442;2023-04-01T04:23:31;9.80;99.90
43627;DHT22;29217;52.586;13.442;2023-04-01T04:26:04;9.80;99.90
43627;DHT22;29217;52.586;13.442;2023-04-01T04:28:31;9.80;99.90
43627;DHT22;29217;52.586;13.442;2023-04-01T04:30:57;9.90;99.90
43627;DHT22;29217;52.586;13.442;2023-04-01T04:33:23;9.90;99.90
43627;DHT22;29217;52.586;13.442;2023-04-01T04:35:50;9.90;99.90
43627;DHT22;29217;52.586;13.442;2023-04-01T04:38:16;9.90;99.90
43627;DHT22;29217;52.586;13.442;2023-04-01T04:40:42;9.80;99.90
43627;DHT22;29217;52.586;13.442;2023-04-01T04:43:13;9.80;99.90
43627;DHT22;29217;52.586;13.442;2023-04-01T04:45:39;9.90;99.90
43627;DHT22;29217;52.586;13.442;2023-04-01T04:48:05;9.90;99.90
43627;DHT22;29217;52.586;13.442;2023-04-01T04:50:31;9.90;99.90
43627;DHT22;29217;52.586;13.442;2023-04-01T04:52:57;9.80;99.90
43627;DHT22;29217;52.586;13.442;2023-04-01T04:55:22;9.80;99.90
43627;DHT22;29217;52.586;13.442;2023-04-01T04:57:48;9.80;99.90
43627;DHT22;29217;52.586;13.442;2023-04-01T05:00:14;9.80;99.90
43627;DHT22;29217;52.586;13.442;2023-04-01T05:02:39;9.80;99.90
43627;DHT22;29217;52.586;13.442;2023-04-01T05:05:05;9.80;99.90
43627;DHT22;29217;52.586;13.442;2023-04-01T05:07:31;9.80;99.90
43627;DHT22;29217;52.586;13.442;2023-04-01T05:09:57;9.80;99.90
43627;DHT22;29217;52.586;13.442;2023-04-01T05:12:23;9.80;99.90
43627;DHT22;29217;52.586;13.442;2023-04-01T05:14:49;9.80;99.90
43627;DHT22;29217;52.586;13.442;2023-04-01T05:17:14;9.80;99.90
43627;DHT22;29217;52.586;13.442;2023-04-01T05:19:40;9.80;99.90
43627;DHT22;29217;52.586;13.442;2023-04-01T05:22:06;9.90;99.90
43627;DHT22;29217;52.586;13.442;2023-04-01T05:24:32;9.90;99.90
43627;DHT22;29217;52.586;13.442;2023-04-01T05:26:58;9.90;99.90
43627;DHT22;29217;52.586;13.442;2023-04-01T05:29:25;9.90;99.90
43627;DHT22;29217;52.586;13.442;2023-04-01T05:31:51;9.90;99.90
43627;DHT22;29217;52.586;13.442;2023-04-01T05:34:17;9.90;99.90
43627;DHT22;29217;52.586;13.442;2023-04-01T05:36:43;9.90;99.90
43627;DHT22;29217;52.586;13.442;2023-04-01T05:39:09;9.90;99.90
43627;DHT22;29217;52.586;13.442;2023-04-01T05:41:35;9.80;99.90
43627;DHT22;29217;52.586;13.442;2023-04-01T05:44:01;9.90;99.90
43627;DHT22;29217;52.586;13.442;2023-04-01T05:46:28;9.80;99.90
43627;DHT22;29217;52.586;13.442;2023-04-01T05:48:53;9.80;99.90
43627;DHT22;29217;52.586;13.442;2023-04-01T05:51:19;9.80;99.90
43627;DHT22;29217;52.586;13.442;2023-04-01T05:53:45;9.90;99.90
43627;DHT22;29217;52.586;13.442;2023-04-01T05:56:11;9.90;99.90
43627;DHT22;29217;52.586;13.442;2023-04-01T05:58:37;9.90;99.90
43627;DHT22;29217;52.586;13.442;2023-04-01T06:01:06;10.00;99.90
43627;DHT22;29217;52.586;13.442;2023-04-01T06:03:32;10.10;99.90
43627;DHT22;29217;52.586;13.442;2023-04-01T06:05:57;10.10;99.90
43627;DHT22;29217;52.586;13.442;2023-04-01T06:08:23;10.10;99.90
43627;DHT22;29217;52.586;13.442;2023-04-01T06:33:39;10.00;99.90
43627;DHT22;29217;52.586;13.442;2023-04-01T06:39:23;10.00;99.90
43627;DHT22;29217;52.586;13.442;2023-04-01T06:41:56;10.10;99.90
43627;DHT22;29217;52.586;13.442;2023-04-01T06:50:19;10.20;99.90
43627;DHT22;29217;52.586;13.442;2023-04-01T06:55:32;10.20;99.90
43627;DHT22;29217;52.586;13.442;2023-04-01T06:58:04;10.20;99.90
43627;DHT22;29217;52.586;13.442;2023-04-01T07:00:40;10.20;99.90
43627;DHT22;29217;52.586;13.442;2023-04-01T07:03:59;10.20;99.90
43627;DHT22;29217;52.586;13.442;2023-04-01T07:06:09;10.10;99.90
43627;DHT22;29217;52.586;13.442;2023-04-01T07:08:39;10.20;99.90
43627;DHT22;29217;52.586;13.442;2023-04-01T07:11:09;10.30;99.90
43627;DHT22;29217;52.586;13.442;2023-04-01T07:16:14;10.30;99.90
43627;DHT22;29217;52.586;13.442;2023-04-01T07:18:48;10.30;99.90
43627;DHT22;29217;52.586;13.442;2023-04-01T07:21:33;10.30;99.90
43627;DHT22;29217;52.586;13.442;2023-04-01T07:24:06;10.30;99.90
43627;DHT22;29217;52.586;13.442;2023-04-01T07:26:34;10.30;99.90
43627;DHT22;29217;52.586;13.442;2023-04-01T07:29:00;10.40;99.90
43627;DHT22;29217;52.586;13.442;2023-04-01T07:34:08;10.30;99.90
43627;DHT22;29217;52.586;13.442;2023-04-01T07:39:08;10.30;99.90
43627;DHT22;29217;52.586;13.442;2023-04-01T07:44:16;9.90;99.90
43627;DHT22;29217;52.586;13.442;2023-04-01T07:49:12;9.70;99.90
43627;DHT22;29217;52.586;13.442;2023-04-01T07:51:55;9.60;99.90
43627;DHT22;29217;52.586;13.442;2023-04-01T07:54:41;9.50;99.90
43627;DHT22;29217;52.586;13.442;2023-04-01T07:57:16;9.50;99.90
43627;DHT22;29217;52.586;13.442;2023-04-01T08:02:28;9.50;99.90
43627;DHT22;29217;52.586;13.442;2023-04-01T08:08:29;9.40;99.90
43627;DHT22;29217;52.586;13.442;2023-04-01T08:11:10;9.30;99.90
43627;DHT22;29217;52.586;13.442;2023-04-01T08:16:21;9.10;99.90
43627;DHT22;29217;52.586;13.442;2023-04-01T08:21:54;9.20;99.90
43627;DHT22;29217;52.586;13.442;2023-04-01T08:24:42;9.20;99.90
43627;DHT22;29217;52.586;13.442;2023-04-01T08:27:28;9.20;99.90
43627;DHT22;29217;52.586;13.442;2023-04-01T08:32:35;9.20;99.90
43627;DHT22;29217;52.586;13.442;2023-04-01T08:35:18;9.20;99.90
43627;DHT22;29217;52.586;13.442;2023-04-01T08:37:45;9.20;99.90
43627;DHT22;29217;52.586;13.442;2023-04-01T08:47:56;9.10;99.90
43627;DHT22;29217;52.586;13.442;2023-04-01T08:50:48;9.00;99.90
43627;DHT22;29217;52.586;13.442;2023-04-01T08:54:02;9.00;99.90
43627;DHT22;29217;52.586;13.442;2023-04-01T08:56:26;9.00;99.90
43627;DHT22;29217;52.586;13.442;2023-04-01T09:02:05;9.10;99.90
43627;DHT22;29217;52.586;13.442;2023-04-01T09:10:17;9.00;99.90
43627;DHT22;29217;52.586;13.442;2023-04-01T09:34:40;8.90;99.90
43627;DHT22;29217;52.586;13.442;2023-04-01T09:37:19;8.90;99.90
43627;DHT22;29217;52.586;13.442;2023-04-01T09:42:42;8.90;99.90
43627;DHT22;29217;52.586;13.442;2023-04-01T10:13:05;8.80;99.90
43627;DHT22;29217;52.586;13.442;2023-04-01T10:18:35;8.80;99.90
43627;DHT22;29217;52.586;13.442;2023-04-01T10:27:09;8.70;99.90
43627;DHT22;29217;52.586;13.442;2023-04-01T10:30:13;8.60;99.90
43627;DHT22;29217;52.586;13.442;2023-04-01T10:52:23;8.40;99.90
43627;DHT22;29217;52.586;13.442;2023-04-01T10:55:23;8.40;99.90
43627;DHT22;29217;52.586;13.442;2023-04-01T11:07:07;8.40;99.90
43627;DHT22;29217;52.586;13.442;2023-04-01T11:18:48;8.40;99.90
43627;DHT22;29217;52.586;13.442;2023-04-01T11:21:32;8.30;99.90
43627;DHT22;29217;52.586;13.442;2023-04-01T11:27:19;8.30;99.90
43627;DHT22;29217;52.586;13.442;2023-04-01T11:32:43;8.20;99.90
43627;DHT22;29217;52.586;13.442;2023-04-01T11:46:28;8.10;99.90
43627;DHT22;29217;52.586;13.442;2023-04-01T11:52:50;8.00;99.90
43627;DHT22;29217;52.586;13.442;2023-04-01T12:10:12;8.00;99.90
43627;DHT22;29217;52.586;13.442;2023-04-01T12:18:12;8.20;99.90
43627;DHT22;29217;52.586;13.442;2023-04-01T12:21:14;8.10;99.90
43627;DHT22;29217;52.586;13.442;2023-04-01T12:32:23;7.80;99.90
43627;DHT22;29217;52.586;13.442;2023-04-01T12:37:49;7.70;99.90
43627;DHT22;29217;52.586;13.442;2023-04-01T12:46:24;7.60;99.90
43627;DHT22;29217;52.586;13.442;2023-04-01T12:52:04;7.70;99.90
43627;DHT22;29217;52.586;13.442;2023-04-01T12:57:15;7.80;99.90
43627;DHT22;29217;52.586;13.442;2023-04-01T13:11:02;7.70;99.90
43627;DHT22;29217;52.586;13.442;2023-04-01T13:13:57;7.60;99.90
43627;DHT22;29217;52.586;13.442;2023-04-01T13:16:38;7.60;99.90
43627;DHT22;29217;52.586;13.442;2023-04-01T13:19:19;7.50;99.90
43627;DHT22;29217;52.586;13.442;2023-04-01T13:27:20;7.50;99.90
43627;DHT22;29217;52.586;13.442;2023-04-01T13:47:51;7.50;99.90
43627;DHT22;29217;52.586;13.442;2023-04-01T13:50:17;7.60;99.90
43627;DHT22;29217;52.586;13.442;2023-04-01T14:04:58;7.50;99.90
43627;DHT22;29217;52.586;13.442;2023-04-01T14:11:04;7.40;99.90
43627;DHT22;29217;52.586;13.442;2023-04-01T14:16:51;7.30;99.90
43627;DHT22;29217;52.586;13.442;2023-04-01T14:19:42;7.30;99.90
43627;DHT22;29217;52.586;13.442;2023-04-01T14:30:54;7.30;99.90
43627;DHT22;29217;52.586;13.442;2023-04-01T14:36:37;7.30;99.90
43627;DHT22;29217;52.586;13.442;2023-04-01T14:39:22;7.30;99.90
43627;DHT22;29217;52.586;13.442;2023-04-01T14:47:58;7.30;99.90
43627;DHT22;29217;52.586;13.442;2023-04-01T14:50:27;7.30;99.90
43627;DHT22;29217;52.586;13.442;2023-04-01T14:56:00;7.20;99.90
43627;DHT22;29217;52.586;13.442;2023-04-01T14:58:45;7.20;99.90
43627;DHT22;29217;52.586;13.442;2023-04-01T15:03:51;7.10;99.90
43627;DHT22;29217;52.586;13.442;2023-04-01T15:12:20;7.10;99.90
43627;DHT22;29217;52.586;13.442;2023-04-01T15:15:02;7.00;99.90
43627;DHT22;29217;52.586;13.442;2023-04-01T15:28:28;7.00;99.90
43627;DHT22;29217;52.586;13.442;2023-04-01T15:34:08;7.10;99.90
43627;DHT22;29217;52.586;13.442;2023-04-01T15:36:56;7.10;99.90
43627;DHT22;29217;52.586;13.442;2023-04-01T15:40:05;7.10;99.90
43627;DHT22;29217;52.586;13.442;2023-04-01T15:48:01;6.90;99.90
43627;DHT22;29217;52.586;13.442;2023-04-01T15:50:57;6.90;99.90
43627;DHT22;29217;52.586;13.442;2023-04-01T15:53:48;6.90;99.90
43627;DHT22;29217;52.586;13.442;2023-04-01T15:59:03;6.90;99.90
43627;DHT22;29217;52.586;13.442;2023-04-01T16:01:53;6.90;99.90
43627;DHT22;29217;52.586;13.442;2023-04-01T16:18:02;6.70;99.90
43627;DHT22;29217;52.586;13.442;2023-04-01T16:23:24;6.80;99.90
43627;DHT22;29217;52.586;13.442;2023-04-01T16:26:19;6.70;99.90
43627;DHT22;29217;52.586;13.442;2023-04-01T16:34:25;6.60;99.90
43627;DHT22;29217;52.586;13.442;2023-04-01T16:36:55;6.60;99.90
43627;DHT22;29217;52.586;13.442;2023-04-01T16:48:10;6.60;99.90
43627;DHT22;29217;52.586;13.442;2023-04-01T16:55:55;6.40;99.90
43627;DHT22;29217;52.586;13.442;2023-04-01T16:58:48;6.40;99.90
43627;DHT22;29217;52.586;13.442;2023-04-01T17:01:27;6.30;99.90
43627;DHT22;29217;52.586;13.442;2023-04-01T17:04:00;6.30;99.90
43627;DHT22;29217;52.586;13.442;2023-04-01T17:06:50;6.20;99.90
43627;DHT22;29217;52.586;13.442;2023-04-01T17:17:58;6.00;99.90
43627;DHT22;29217;52.586;13.442;2023-04-01T17:20:40;5.90;99.90
43627;DHT22;29217;52.586;13.442;2023-04-01T17:28:53;5.70;99.90
43627;DHT22;29217;52.586;13.442;2023-04-01T17:34:22;5.60;99.90
43627;DHT22;29217;52.586;13.442;2023-04-01T17:51:24;5.50;99.90
43627;DHT22;29217;52.586;13.442;2023-04-01T17:56:59;5.40;99.90
43627;DHT22;29217;52.586;13.442;2023-04-01T17:59:44;5.30;99.90
43627;DHT22;29217;52.586;13.442;2023-04-01T18:02:31;5.30;99.90
43627;DHT22;29217;52.586;13.442;2023-04-01T18:16:29;5.10;99.90
43627;DHT22;29217;52.586;13.442;2023-04-01T18:22:08;5.00;99.90
43627;DHT22;29217;52.586;13.442;2023-04-01T18:24:56;5.00;99.90
43627;DHT22;29217;52.586;13.442;2023-04-01T18:27:40;5.00;99.90
43627;DHT22;29217;52.586;13.442;2023-04-01T18:30:17;5.00;99.90
43627;DHT22;29217;52.586;13.442;2023-04-01T18:33:25;5.00;99.90
43627;DHT22;29217;52.586;13.442;2023-04-01T18:36:13;4.90;99.90
43627;DHT22;29217;52.586;13.442;2023-04-01T18:38:50;4.90;99.90
43627;DHT22;29217;52.586;13.442;2023-04-01T18:41:34;4.90;99.90
43627;DHT22;29217;52.586;13.442;2023-04-01T18:44:46;4.80;99.90
43627;DHT22;29217;52.586;13.442;2023-04-01T18:52:33;4.80;99.90
43627;DHT22;29217;52.586;13.442;2023-04-01T18:57:50;4.80;99.90
43627;DHT22;29217;52.586;13.442;2023-04-01T19:00:26;4.80;99.90
43627;DHT22;29217;52.586;13.442;2023-04-01T19:03:01;4.70;99.90
43627;DHT22;29217;52.586;13.442;2023-04-01T19:05:33;4.90;99.90
43627;DHT22;29217;52.586;13.442;2023-04-01T19:11:01;4.70;99.90
43627;DHT22;29217;52.586;13.442;2023-04-01T19:13:50;4.60;99.90
43627;DHT22;29217;52.586;13.442;2023-04-01T19:19:56;4.50;99.90
43627;DHT22;29217;52.586;13.442;2023-04-01T19:36:14;4.50;99.90
43627;DHT22;29217;52.586;13.442;2023-04-01T19:57:30;4.30;99.90
43627;DHT22;29217;52.586;13.442;2023-04-01T20:00:22;4.30;99.90
43627;DHT22;29217;52.586;13.442;2023-04-01T20:03:23;4.20;99.90
43627;DHT22;29217;52.586;13.442;2023-04-01T20:19:10;4.10;99.90
43627;DHT22;29217;52.586;13.442;2023-04-01T20:21:42;4.10;99.90
43627;DHT22;29217;52.586;13.442;2023-04-01T20:24:17;4.00;99.90
43627;DHT22;29217;52.586;13.442;2023-04-01T20:26:51;4.10;99.90
43627;DHT22;29217;52.586;13.442;2023-04-01T20:37:49;3.90;99.90
43627;DHT22;29217;52.586;13.442;2023-04-01T20:40:38;4.00;99.90
43627;DHT22;29217;52.586;13.442;2023-04-01T20:43:14;4.00;99.90
43627;DHT22;29217;52.586;13.442;2023-04-01T20:46:01;3.90;99.90
43627;DHT22;29217;52.586;13.442;2023-04-01T20:48:44;4.00;99.90
43627;DHT22;29217;52.586;13.442;2023-04-01T20:51:23;3.90;99.90
43627;DHT22;29217;52.586;13.442;2023-04-01T20:54:24;3.90;99.90
43627;DHT22;29217;52.586;13.442;2023-04-01T20:59:56;3.90;99.90
43627;DHT22;29217;52.586;13.442;2023-04-01T21:27:41;3.80;99.90
43627;DHT22;29217;52.586;13.442;2023-04-01T21:35:51;3.70;99.90
43627;DHT22;29217;52.586;13.442;2023-04-01T21:42:10;3.70;99.90
43627;DHT22;29217;52.586;13.442;2023-04-01T21:44:32;3.70;99.90
43627;DHT22;29217;52.586;13.442;2023-04-01T22:00:33;3.60;99.90
43627;DHT22;29217;52.586;13.442;2023-04-01T22:13:35;3.50;99.90
43627;DHT22;29217;52.586;13.442;2023-04-01T22:21:42;3.50;99.90
43627;DHT22;29217;52.586;13.442;2023-04-01T22:24:26;3.50;99.90
43627;DHT22;29217;52.586;13.442;2023-04-01T22:33:13;3.50;99.90
43627;DHT22;29217;52.586;13.442;2023-04-01T22:35:54;3.50;99.90
43627;DHT22;29217;52.586;13.442;2023-04-01T22:43:44;3.50;99.90
43627;DHT22;29217;52.586;13.442;2023-04-01T22:48:50;3.50;99.90
43627;DHT22;29217;52.586;13.442;2023-04-01T22:56:41;3.50;99.90
43627;DHT22;29217;52.586;13.442;2023-04-01T23:01:54;3.50;99.90
43627;DHT22;29217;52.586;13.442;2023-04-01T23:04:24;3.40;99.90
43627;DHT22;29217;52.586;13.442;2023-04-01T23:06:58;3.40;99.90
43627;DHT22;29217;52.586;13.442;2023-04-01T23:09:27;3.40;99.90
43627;DHT22;29217;52.586;13.442;2023-04-01T23:12:10;3.40;99.90
43627;DHT22;29217;52.586;13.442;2023-04-01T23:14:56;3.40;99.90
43627;DHT22;29217;52.586;13.442;2023-04-01T23:22:49;3.40;99.90
43627;DHT22;29217;52.586;13.442;2023-04-01T23:33:19;3.50;99.90
43627;DHT22;29217;52.586;13.442;2023-04-01T23:36:10;3.50;99.90
43627;DHT22;29217;52.586;13.442;2023-04-01T23:38:38;3.40;99.90
43627;DHT22;29217;52.586;13.442;2023-04-01T23:41:05;3.40;99.90
43627;DHT22;29217;52.586;13.442;2023-04-01T23:43:35;3.40;99.90
43627;DHT22;29217;52.586;13.442;2023-04-01T23:46:02;3.40;99.90
43627;DHT22;29217;52.586;13.442;2023-04-01T23:48:43;3.40;99.90
43627;DHT22;29217;52.586;13.442;2023-04-01T23:51:36;3.30;99.90
43627;DHT22;29217;52.586;13.442;2023-04-01T23:54:34;3.30;99.90
43627;DHT22;29217;52.586;13.442;2023-04-01T23:57:13;3.30;99.90
43627;DHT22;29217;52.586;13.442;2023-04-01T23:59:39;3.40;99.90
